createdAt,value
2022-07-29T00:00:35.938Z,56.32
2022-07-29T00:03:10.714Z,56.33
2022-07-29T00:05:44.569Z,56.37
2022-07-29T00:08:17.396Z,56.57
2022-07-29T00:10:50.463Z,56.46
2022-07-29T00:13:32.372Z,56.47
2022-07-29T00:16:06.375Z,56.23
2022-07-29T00:18:38.876Z,56.19
2022-07-29T00:21:11.414Z,56.21
2022-07-29T00:23:44.071Z,56.09
2022-07-29T00:26:16.519Z,56.09
2022-07-29T00:28:49.851Z,56.17
2022-07-29T00:31:22.911Z,56.28
2022-07-29T00:33:55.892Z,56.21
2022-07-29T00:36:31.141Z,56.39
2022-07-29T00:39:03.488Z,56.37
2022-07-29T00:41:35.660Z,56.31
2022-07-29T00:44:08.295Z,56.36
2022-07-29T00:46:40.795Z,56.49
2022-07-29T00:49:13.716Z,56.39
2022-07-29T00:51:46.604Z,56.52
2022-07-29T00:54:19.371Z,56.52
2022-07-29T00:56:53.003Z,56.56
2022-07-29T00:59:25.350Z,56.55
2022-07-29T01:02:07.838Z,56.71
2022-07-29T01:04:41.238Z,56.72
2022-07-29T01:07:14.094Z,56.45
2022-07-29T01:09:47.352Z,56.47
2022-07-29T01:12:28.661Z,56.32
2022-07-29T01:15:01.462Z,56.14
2022-07-29T01:17:38.609Z,56.25
2022-07-29T01:20:19.029Z,56.14
2022-07-29T01:23:08.218Z,55.96
2022-07-29T01:26:00.657Z,55.72
2022-07-29T01:28:54.946Z,55.59
2022-07-29T01:31:36.572Z,55.45
2022-07-29T01:34:15.307Z,55.53
2022-07-29T01:36:51.295Z,55.39
2022-07-29T01:39:28.787Z,55.32
2022-07-29T01:42:08.143Z,55.28
2022-07-29T01:44:44.190Z,55.20
2022-07-29T01:47:20.262Z,55.13
2022-07-29T01:49:59.083Z,55.07
2022-07-29T01:52:33.442Z,55.02
2022-07-29T01:55:12.301Z,54.90
2022-07-29T01:57:48.286Z,54.94
2022-07-29T02:00:21.356Z,54.88
2022-07-29T02:02:54.635Z,54.83
2022-07-29T02:05:28.337Z,54.78
2022-07-29T02:08:02.766Z,54.84
2022-07-29T02:10:36.861Z,54.83
2022-07-29T02:13:11.744Z,54.80
2022-07-29T02:15:45.743Z,54.67
2022-07-29T02:18:20.491Z,54.58
2022-07-29T02:20:54.987Z,54.56
2022-07-29T02:23:28.743Z,54.54
2022-07-29T02:26:02.337Z,54.43
2022-07-29T02:28:37.790Z,54.35
2022-07-29T02:31:10.249Z,54.27
2022-07-29T02:33:44.788Z,54.18
2022-07-29T02:36:19.627Z,54.11
2022-07-29T02:38:52.623Z,54.00
2022-07-29T02:41:30.803Z,54.02
2022-07-29T02:44:08.169Z,53.99
2022-07-29T02:46:52.387Z,53.90
2022-07-29T02:49:37.142Z,53.85
2022-07-29T02:52:15.569Z,53.88
2022-07-29T02:55:01.174Z,53.86
2022-07-29T02:57:54.152Z,53.72
2022-07-29T03:00:30.697Z,53.67
2022-07-29T03:03:06.275Z,53.68
2022-07-29T03:05:39.025Z,53.52
2022-07-29T03:08:13.632Z,53.47
2022-07-29T03:10:48.259Z,53.34
2022-07-29T03:13:20.674Z,53.25
2022-07-29T03:15:53.586Z,53.25
2022-07-29T03:18:26.834Z,53.17
2022-07-29T03:20:59.180Z,53.16
2022-07-29T03:23:35.167Z,53.07
2022-07-29T03:26:09.285Z,53.05
2022-07-29T03:28:41.229Z,53.02
2022-07-29T03:31:13.721Z,53.10
2022-07-29T03:33:46.368Z,53.00
2022-07-29T03:36:18.230Z,53.02
2022-07-29T03:38:52.355Z,53.05
2022-07-29T03:41:27.445Z,52.96
2022-07-29T03:44:00.053Z,52.97
2022-07-29T03:46:33.354Z,52.97
2022-07-29T03:49:09.391Z,53.08
2022-07-29T03:51:41.794Z,53.06
2022-07-29T03:54:14.620Z,53.15
2022-07-29T03:56:49.092Z,53.11
2022-07-29T03:59:22.403Z,52.96
2022-07-29T04:01:55.202Z,52.68
2022-07-29T04:04:27.337Z,52.54
2022-07-29T04:07:01.005Z,52.50
2022-07-29T04:09:34.754Z,52.57
2022-07-29T04:12:07.643Z,52.61
2022-07-29T04:14:40.482Z,52.61
2022-07-29T04:17:12.988Z,52.59
2022-07-29T04:19:44.946Z,52.57
2022-07-29T04:22:16.908Z,52.60
2022-07-29T04:24:48.741Z,52.57
2022-07-29T04:27:20.882Z,52.56
2022-07-29T04:29:56.515Z,52.38
2022-07-29T04:32:32.657Z,52.19
2022-07-29T04:35:05.248Z,52.24
2022-07-29T04:37:37.223Z,52.25
2022-07-29T04:40:12.909Z,52.08
2022-07-29T04:42:46.846Z,52.13
2022-07-29T04:45:22.539Z,52.17
2022-07-29T04:47:54.959Z,52.13
2022-07-29T04:50:27.217Z,52.08
2022-07-29T04:53:00.171Z,52.10
2022-07-29T04:55:32.223Z,52.01
2022-07-29T04:58:05.302Z,51.96
2022-07-29T05:00:38.553Z,51.88
2022-07-29T05:03:10.731Z,51.68
2022-07-29T05:05:44.829Z,51.78
2022-07-29T05:08:17.018Z,51.85
2022-07-29T05:10:49.522Z,51.68
2022-07-29T05:13:21.375Z,51.74
2022-07-29T05:15:53.680Z,51.62
2022-07-29T05:18:26.762Z,51.37
2022-07-29T05:20:59.607Z,51.33
2022-07-29T05:23:32.384Z,51.35
2022-07-29T05:26:04.646Z,51.38
2022-07-29T05:28:38.908Z,51.29
2022-07-29T05:31:10.998Z,51.13
2022-07-29T05:33:44.120Z,51.00
2022-07-29T05:36:16.365Z,51.11
2022-07-29T05:38:48.915Z,50.94
2022-07-29T05:41:20.885Z,50.83
2022-07-29T05:43:53.140Z,50.62
2022-07-29T05:46:25.734Z,50.58
2022-07-29T05:49:00.195Z,50.63
2022-07-29T05:51:32.502Z,50.79
2022-07-29T05:54:05.217Z,50.36
2022-07-29T05:56:38.271Z,50.02
2022-07-29T05:59:17.908Z,50.22
2022-07-29T06:01:50.874Z,50.29
2022-07-29T06:04:23.201Z,50.08
2022-07-29T06:06:56.213Z,50.15
2022-07-29T06:09:29.315Z,50.00
2022-07-29T06:12:02.223Z,49.67
2022-07-29T06:14:34.263Z,49.24
2022-07-29T06:17:07.173Z,49.24
2022-07-29T06:19:40.359Z,49.04
2022-07-29T06:22:13.172Z,49.31
2022-07-29T06:24:45.895Z,49.02
2022-07-29T06:27:19.496Z,48.87
2022-07-29T06:29:51.592Z,48.59
2022-07-29T06:32:24.164Z,48.53
2022-07-29T06:35:36.162Z,48.27
2022-07-29T06:37:55.321Z,48.21
2022-07-29T06:40:49.898Z,48.25
2022-07-29T06:43:21.923Z,47.95
2022-07-29T06:45:55.268Z,48.01
2022-07-29T06:48:28.169Z,47.46
2022-07-29T06:51:01.054Z,47.35
2022-07-29T06:53:33.533Z,47.22
2022-07-29T06:56:09.421Z,47.05
2022-07-29T06:58:41.742Z,46.59
2022-07-29T07:01:14.297Z,46.61
2022-07-29T07:03:48.197Z,46.32
2022-07-29T07:06:20.486Z,46.05
2022-07-29T07:08:53.191Z,46.11
2022-07-29T07:11:25.607Z,45.82
2022-07-29T07:14:02.657Z,45.68
2022-07-29T07:16:35.928Z,45.20
2022-07-29T07:19:08.724Z,44.95
2022-07-29T07:21:41.408Z,44.67
2022-07-29T07:24:14.016Z,44.63
2022-07-29T07:26:46.237Z,44.56
2022-07-29T07:29:18.308Z,44.79
2022-07-29T07:31:50.332Z,44.12
2022-07-29T07:34:29.642Z,43.73
2022-07-29T07:37:02.507Z,44.07
2022-07-29T07:39:34.689Z,43.99
2022-07-29T07:42:07.980Z,44.03
2022-07-29T07:45:03.784Z,43.96
2022-07-29T07:47:32.890Z,44.03
2022-07-29T07:50:08.565Z,44.02
2022-07-29T07:52:50.353Z,44.12
2022-07-29T07:55:25.460Z,44.07
2022-07-29T07:57:58.024Z,43.86
2022-07-29T08:00:31.862Z,43.40
2022-07-29T08:03:04.567Z,43.23
2022-07-29T08:05:49.456Z,43.18
2022-07-29T08:08:21.988Z,43.18
2022-07-29T08:10:54.729Z,42.67
2022-07-29T08:13:31.484Z,42.24
2022-07-29T08:16:12.628Z,42.64
2022-07-29T08:18:46.451Z,42.23
2022-07-29T08:21:18.705Z,42.35
2022-07-29T08:24:00.777Z,42.34
2022-07-29T08:26:35.587Z,42.04
2022-07-29T08:29:08.039Z,41.51
2022-07-29T08:31:40.856Z,41.88
2022-07-29T08:34:13.320Z,42.12
2022-07-29T08:36:46.036Z,41.82
2022-07-29T08:39:23.011Z,41.95
2022-07-29T08:41:57.227Z,41.93
2022-07-29T08:44:31.319Z,41.83
2022-07-29T08:47:03.611Z,42.03
2022-07-29T08:49:37.395Z,41.80
2022-07-29T08:52:11.811Z,42.00
2022-07-29T08:54:47.152Z,41.67
2022-07-29T08:57:20.677Z,41.42
2022-07-29T08:59:55.560Z,41.44
2022-07-29T09:02:29.011Z,41.46
2022-07-29T09:05:02.404Z,41.38
2022-07-29T09:07:37.331Z,40.65
2022-07-29T09:10:11.182Z,40.68
2022-07-29T09:12:43.488Z,40.74
2022-07-29T09:15:15.628Z,40.76
2022-07-29T09:17:50.237Z,40.86
2022-07-29T09:20:24.144Z,40.61
2022-07-29T09:22:59.356Z,40.71
2022-07-29T09:25:39.098Z,40.71
2022-07-29T09:28:12.787Z,40.18
2022-07-29T09:30:54.491Z,40.19
2022-07-29T09:33:35.514Z,39.67
2022-07-29T09:36:09.366Z,39.55
2022-07-29T09:38:41.364Z,39.54
2022-07-29T09:41:15.249Z,39.27
2022-07-29T09:43:58.076Z,39.48
2022-07-29T09:46:30.584Z,39.51
2022-07-29T09:49:18.906Z,39.24
2022-07-29T09:51:51.651Z,39.03
2022-07-29T09:54:28.166Z,39.05
2022-07-29T09:57:00.321Z,38.94
2022-07-29T09:59:33.065Z,38.18
2022-07-29T10:02:05.253Z,38.34
2022-07-29T10:04:44.932Z,38.24
2022-07-29T10:07:17.479Z,37.95
2022-07-29T10:09:59.515Z,37.39
2022-07-29T10:12:31.749Z,37.05
2022-07-29T10:15:06.227Z,37.21
2022-07-29T10:17:40.528Z,37.16
2022-07-29T10:20:16.441Z,36.62
2022-07-29T10:22:53.358Z,36.33
2022-07-29T10:25:27.542Z,35.73
2022-07-29T10:28:00.494Z,35.61
2022-07-29T10:30:32.923Z,35.20
2022-07-29T10:33:18.167Z,35.53
2022-07-29T10:36:01.192Z,35.84
2022-07-29T10:38:51.923Z,35.79
2022-07-29T10:41:49.981Z,35.93
2022-07-29T10:44:24.039Z,36.03
2022-07-29T10:46:57.730Z,36.12
2022-07-29T10:49:31.229Z,35.64
2022-07-29T10:52:09.719Z,35.12
2022-07-29T10:54:55.426Z,35.18
2022-07-29T10:57:52.481Z,35.30
2022-07-29T11:00:36.790Z,34.74
2022-07-29T11:03:10.836Z,34.36
2022-07-29T11:05:59.767Z,34.45
2022-07-29T11:08:35.290Z,34.18
2022-07-29T11:11:44.176Z,34.00
2022-07-29T11:15:00.448Z,34.37
2022-07-29T11:17:47.239Z,34.34
2022-07-29T11:20:40.130Z,33.72
2022-07-29T11:23:33.852Z,33.63
2022-07-29T11:26:23.183Z,33.49
2022-07-29T11:29:03.391Z,33.22
2022-07-29T11:31:42.712Z,33.74
2022-07-29T11:34:28.238Z,33.48
2022-07-29T11:37:29.485Z,33.30
2022-07-29T11:40:21.361Z,33.29
2022-07-29T11:42:55.205Z,33.60
2022-07-29T11:45:43.393Z,33.80
2022-07-29T11:48:31.475Z,34.07
2022-07-29T11:51:13.425Z,33.61
2022-07-29T11:53:52.687Z,33.66
2022-07-29T11:56:25.838Z,33.61
2022-07-29T11:59:08.332Z,33.49
2022-07-29T12:02:18.052Z,33.31
2022-07-29T12:04:55.296Z,32.45
2022-07-29T12:07:32.556Z,31.98
2022-07-29T12:10:11.473Z,32.28
2022-07-29T12:13:02.626Z,31.93
2022-07-29T12:15:46.098Z,31.10
2022-07-29T12:18:23.931Z,31.02
2022-07-29T12:21:04.893Z,30.74
2022-07-29T12:23:38.090Z,30.54
2022-07-29T12:26:21.947Z,30.34
2022-07-29T12:28:58.300Z,30.14
2022-07-29T12:31:43.829Z,30.16
2022-07-29T12:34:17.751Z,30.30
2022-07-29T12:36:49.834Z,30.31
2022-07-29T12:39:22.244Z,30.05
2022-07-29T12:42:04.474Z,30.25
2022-07-29T12:44:50.966Z,30.30
2022-07-29T12:47:24.129Z,30.50
2022-07-29T12:50:12.981Z,30.37
2022-07-29T12:52:51.918Z,29.95
2022-07-29T12:55:50.113Z,29.57
2022-07-29T12:58:37.054Z,29.60
2022-07-29T13:01:17.469Z,29.69
2022-07-29T13:03:56.708Z,29.98
2022-07-29T13:06:39.044Z,30.01
2022-07-29T13:09:16.207Z,30.14
2022-07-29T13:11:50.238Z,30.21
2022-07-29T13:14:35.708Z,30.09
2022-07-29T13:17:11.666Z,29.97
2022-07-29T13:19:45.036Z,29.70
2022-07-29T13:22:19.034Z,29.83
2022-07-29T13:24:55.117Z,29.44
2022-07-29T13:27:28.919Z,29.72
2022-07-29T13:30:02.030Z,29.50
2022-07-29T13:32:35.970Z,29.50
2022-07-29T13:35:11.086Z,28.98
2022-07-29T13:37:45.581Z,29.19
2022-07-29T13:40:18.256Z,29.29
2022-07-29T13:42:52.008Z,28.91
2022-07-29T13:45:24.356Z,28.89
2022-07-29T13:48:01.527Z,29.08
2022-07-29T13:50:34.224Z,28.86
2022-07-29T13:53:08.251Z,28.71
2022-07-29T13:55:40.339Z,28.43
2022-07-29T13:58:12.825Z,28.29
2022-07-29T14:00:44.801Z,28.39
2022-07-29T14:03:17.451Z,28.45
2022-07-29T14:05:49.664Z,28.05
2022-07-29T14:08:25.289Z,27.63
2022-07-29T14:10:58.012Z,27.50
2022-07-29T14:13:30.196Z,27.44
2022-07-29T14:16:02.817Z,27.46
2022-07-29T14:18:34.815Z,27.24
2022-07-29T14:21:07.393Z,27.71
2022-07-29T14:23:39.160Z,27.77
2022-07-29T14:26:19.581Z,28.03
2022-07-29T14:28:54.510Z,28.05
2022-07-29T14:31:27.111Z,28.32
2022-07-29T14:34:02.709Z,28.54
2022-07-29T14:36:36.053Z,28.67
2022-07-29T14:39:08.406Z,28.85
2022-07-29T14:41:40.718Z,28.54
2022-07-29T14:44:13.279Z,28.39
2022-07-29T14:46:47.695Z,28.06
2022-07-29T14:49:22.083Z,28.27
2022-07-29T14:51:54.082Z,28.02
2022-07-29T14:54:26.753Z,28.31
2022-07-29T14:56:59.160Z,28.95
2022-07-29T14:59:32.261Z,28.88
2022-07-29T15:02:05.294Z,28.47
2022-07-29T15:04:37.560Z,28.06
2022-07-29T15:07:10.556Z,28.50
2022-07-29T15:09:49.633Z,28.13
2022-07-29T15:12:24.642Z,27.82
2022-07-29T15:14:57.149Z,27.78
2022-07-29T15:17:30.008Z,28.18
2022-07-29T15:20:04.545Z,29.01
2022-07-29T15:22:36.919Z,29.77
2022-07-29T15:25:13.764Z,30.10
2022-07-29T15:27:52.153Z,30.90
2022-07-29T15:30:31.571Z,31.35
2022-07-29T15:33:09.545Z,31.92
2022-07-29T15:35:43.552Z,32.19
2022-07-29T15:38:15.906Z,32.68
2022-07-29T15:40:47.971Z,33.03
2022-07-29T15:43:20.359Z,33.48
2022-07-29T15:46:06.395Z,33.76
2022-07-29T15:48:41.892Z,34.17
2022-07-29T15:51:14.169Z,34.49
2022-07-29T15:53:53.533Z,34.88
2022-07-29T15:56:27.295Z,35.21
2022-07-29T15:58:59.614Z,35.44
2022-07-29T16:01:34.310Z,35.74
2022-07-29T16:04:07.218Z,36.12
2022-07-29T16:06:39.665Z,36.27
2022-07-29T16:09:12.620Z,36.60
2022-07-29T16:11:46.591Z,36.77
2022-07-29T16:14:20.890Z,37.07
2022-07-29T16:16:55.469Z,37.26
2022-07-29T16:19:28.003Z,37.37
2022-07-29T16:22:00.935Z,37.52
2022-07-29T16:24:34.076Z,37.71
2022-07-29T16:27:08.738Z,37.78
2022-07-29T16:29:41.069Z,37.93
2022-07-29T16:32:15.035Z,38.12
2022-07-29T16:34:58.740Z,38.17
2022-07-29T16:37:36.188Z,38.39
2022-07-29T16:40:11.726Z,38.87
2022-07-29T16:42:47.050Z,39.57
2022-07-29T16:45:21.290Z,41.76
2022-07-29T16:47:58.459Z,43.73
2022-07-29T16:50:33.752Z,46.46
2022-07-29T16:53:06.117Z,48.77
2022-07-29T16:55:42.430Z,50.37
2022-07-29T16:58:14.958Z,51.98
2022-07-29T17:00:47.450Z,53.48
2022-07-29T17:03:21.296Z,54.70
2022-07-29T17:05:54.259Z,55.79
2022-07-29T17:08:26.911Z,57.03
2022-07-29T17:10:58.981Z,58.30
2022-07-29T17:13:31.376Z,59.53
2022-07-29T17:16:04.271Z,60.02
2022-07-29T17:18:37.137Z,59.89
2022-07-29T17:21:09.381Z,61.01
2022-07-29T17:23:41.779Z,60.53
2022-07-29T17:26:14.550Z,61.27
2022-07-29T17:28:48.561Z,62.25
2022-07-29T17:31:21.321Z,63.20
2022-07-29T17:33:56.053Z,64.24
2022-07-29T17:36:31.745Z,65.41
2022-07-29T17:39:05.849Z,65.94
2022-07-29T17:41:38.348Z,67.42
2022-07-29T17:44:12.286Z,67.33
2022-07-29T17:46:44.413Z,68.03
2022-07-29T17:49:16.684Z,68.51
2022-07-29T17:51:48.792Z,69.24
2022-07-29T17:54:20.889Z,69.33
2022-07-29T17:56:52.826Z,70.52
2022-07-29T17:59:25.255Z,70.55
2022-07-29T18:01:57.427Z,71.19
2022-07-29T18:04:31.183Z,71.40
2022-07-29T18:07:03.264Z,71.63
2022-07-29T18:09:37.153Z,72.17
2022-07-29T18:12:11.106Z,71.96
2022-07-29T18:14:44.024Z,72.50
2022-07-29T18:17:17.037Z,72.65
2022-07-29T18:19:49.807Z,72.80
2022-07-29T18:22:22.545Z,73.33
2022-07-29T18:24:55.403Z,74.26
2022-07-29T18:27:27.669Z,74.91
2022-07-29T18:30:04.585Z,75.07
2022-07-29T18:32:38.837Z,75.43
2022-07-29T18:35:11.931Z,75.42
2022-07-29T18:38:00.833Z,75.90
2022-07-29T18:40:35.452Z,76.01
2022-07-29T18:43:09.604Z,76.49
2022-07-29T18:45:42.472Z,76.49
2022-07-29T18:48:14.658Z,76.96
2022-07-29T18:50:48.076Z,76.96
2022-07-29T18:53:20.325Z,77.00
2022-07-29T18:55:52.239Z,77.46
2022-07-29T18:58:24.193Z,77.50
2022-07-29T19:00:56.469Z,77.64
2022-07-29T19:03:29.314Z,78.07
2022-07-29T19:06:03.483Z,78.43
2022-07-29T19:08:36.711Z,78.54
2022-07-29T19:11:09.639Z,78.78
2022-07-29T19:13:42.181Z,78.66
2022-07-29T19:16:15.750Z,78.86
2022-07-29T19:18:49.156Z,79.06
2022-07-29T19:21:21.567Z,78.94
2022-07-29T19:24:05.864Z,78.77
2022-07-29T19:26:46.512Z,79.46
2022-07-29T19:29:19.039Z,79.91
2022-07-29T19:31:51.239Z,79.73
2022-07-29T19:34:23.325Z,79.93
2022-07-29T19:36:55.931Z,79.96
2022-07-29T19:39:34.829Z,79.90
2022-07-29T19:42:08.472Z,80.18
2022-07-29T19:44:41.156Z,80.22
2022-07-29T19:47:17.166Z,80.22
2022-07-29T19:49:49.929Z,79.89
2022-07-29T19:52:24.609Z,79.58
2022-07-29T19:54:56.923Z,80.10
2022-07-29T19:57:29.953Z,79.94
2022-07-29T20:00:15.463Z,80.04
2022-07-29T20:02:47.601Z,80.13
2022-07-29T20:05:20.063Z,79.76
2022-07-29T20:07:52.143Z,79.96
2022-07-29T20:10:24.754Z,79.74
2022-07-29T20:12:57.026Z,80.14
2022-07-29T20:15:29.680Z,79.75
2022-07-29T20:18:01.674Z,79.61
2022-07-29T20:20:34.198Z,79.89
2022-07-29T20:23:06.674Z,79.63
2022-07-29T20:25:39.490Z,79.81
2022-07-29T20:28:11.929Z,79.94
2022-07-29T20:30:47.534Z,80.15
2022-07-29T20:33:20.260Z,80.26
2022-07-29T20:35:52.808Z,80.65
2022-07-29T20:38:25.292Z,80.79
2022-07-29T20:41:00.498Z,81.07
2022-07-29T20:43:35.886Z,81.15
2022-07-29T20:46:11.486Z,81.47
2022-07-29T20:48:43.665Z,81.62
2022-07-29T20:51:18.139Z,81.56
2022-07-29T20:53:52.556Z,81.51
2022-07-29T20:56:24.524Z,81.62
2022-07-29T20:58:56.673Z,81.81
2022-07-29T21:01:29.332Z,81.99
2022-07-29T21:04:03.214Z,82.18
2022-07-29T21:06:35.386Z,82.46
2022-07-29T21:09:07.483Z,82.64
2022-07-29T21:11:44.529Z,82.80
2022-07-29T21:14:30.779Z,82.98
2022-07-29T21:17:06.382Z,83.15
2022-07-29T21:19:38.726Z,83.45
2022-07-29T21:22:11.334Z,83.64
2022-07-29T21:24:43.571Z,83.79
2022-07-29T21:27:33.174Z,83.75
2022-07-29T21:30:06.009Z,83.83
2022-07-29T21:32:38.359Z,83.88
2022-07-29T21:35:22.366Z,83.98
2022-07-29T21:38:06.124Z,83.84
2022-07-29T21:40:38.289Z,83.97
2022-07-29T21:43:12.856Z,83.74
2022-07-29T21:45:47.747Z,83.48
2022-07-29T21:48:21.095Z,83.31
2022-07-29T21:50:53.903Z,83.66
2022-07-29T21:53:26.926Z,83.55
2022-07-29T21:55:59.390Z,83.55
2022-07-29T21:58:31.597Z,83.55
2022-07-29T22:01:05.142Z,83.43
2022-07-29T22:03:37.756Z,83.25
2022-07-29T22:06:11.272Z,83.04
2022-07-29T22:08:50.509Z,82.86
2022-07-29T22:11:23.082Z,82.75
2022-07-29T22:13:55.320Z,82.77
2022-07-29T22:16:27.624Z,82.25
2022-07-29T22:18:59.678Z,82.39
2022-07-29T22:21:32.367Z,82.00
2022-07-29T22:24:09.918Z,81.62
2022-07-29T22:26:42.137Z,81.49
2022-07-29T22:29:16.872Z,81.28
2022-07-29T22:31:48.948Z,81.33
2022-07-29T22:34:23.050Z,81.29
2022-07-29T22:36:54.970Z,81.17
2022-07-29T22:39:28.514Z,81.25
2022-07-29T22:42:00.844Z,81.10
2022-07-29T22:44:34.538Z,81.03
2022-07-29T22:47:07.506Z,81.06
2022-07-29T22:49:39.532Z,80.93
2022-07-29T22:52:11.805Z,80.84
2022-07-29T22:54:47.072Z,80.74
2022-07-29T22:57:20.029Z,80.66
2022-07-29T22:59:54.335Z,80.44
2022-07-29T23:02:27.036Z,80.46
2022-07-29T23:04:59.587Z,80.22
2022-07-29T23:07:31.955Z,80.21
2022-07-29T23:10:05.369Z,80.12
2022-07-29T23:12:37.501Z,80.00
2022-07-29T23:15:11.047Z,79.83
2022-07-29T23:17:43.502Z,79.64
2022-07-29T23:20:16.154Z,79.47
2022-07-29T23:22:48.241Z,79.33
2022-07-29T23:25:20.327Z,79.31
2022-07-29T23:27:52.496Z,79.14
2022-07-29T23:30:24.550Z,79.05
2022-07-29T23:32:56.815Z,78.96
2022-07-29T23:35:28.751Z,78.93
2022-07-29T23:38:01.096Z,78.82
2022-07-29T23:40:33.455Z,78.96
2022-07-29T23:43:08.558Z,78.94
2022-07-29T23:45:44.539Z,78.82
2022-07-29T23:48:17.427Z,78.81
2022-07-29T23:50:50.174Z,79.20
2022-07-29T23:53:22.575Z,79.25
2022-07-29T23:55:54.617Z,79.59
2022-07-29T23:58:27.131Z,79.94
